NCAR-RAP Real-Time Weather Data

Output produced by METARs form (06 May 2021  15:19 UTC)
found at http://weather.rap.ucar.edu/surface/
 
KBFD 061453Z AUTO 29010KT 10SM BKN039 BKN046 09/M01 A3006 RMK AO2 SLP186 T00941006 50002
KBFD 061415Z AUTO 33004KT 10SM FEW025 SCT030 BKN039 09/00 A3006 RMK AO2 T00890000
KBFD 061353Z AUTO 30003KT 10SM BKN024 BKN037 08/01 A3007 RMK AO2 SLP188 T00780011
KBFD 061253Z AUTO 28004KT 10SM CLR 07/01 A3006 RMK AO2 SLP188 T00670011
KBFD 061153Z AUTO 28005KT 10SM FEW007 04/01 A3006 RMK AO2 SLP187 60000 70001 T00440011 10050 20033 53008
KBFD 061119Z AUTO 30006KT 10SM SCT009 04/01 A3005 RMK AO2 T00390011
KBFD 061109Z AUTO 33005KT 10SM BKN009 04/01 A3004 RMK AO2 T00390011
KBFD 061053Z AUTO 31004KT 10SM BKN010 03/01 A3004 RMK AO2 SLP183 T00330006
KBFD 060953Z AUTO 00000KT 10SM OVC010 04/01 A3004 RMK AO2 SLP181 T00390011
KBFD 060853Z AUTO 33006KT 10SM OVC011 04/01 A3003 RMK AO2 SLP177 60000 T00390011 53006
KBFD 060753Z AUTO 32007KT 10SM OVC014 04/01 A3002 RMK AO2 SLP172 T00440011
KBFD 060725Z AUTO 32009KT 10SM OVC014 04/01 A3001 RMK AO2 T00440011
KBFD 060653Z AUTO 30008KT 10SM BKN016 OVC022 04/01 A3000 RMK AO2 RAB0558E31 SLP168 P0000 T00440011
KBFD 060635Z AUTO 33007KT 10SM OVC014 04/02 A3001 RMK AO2 RAB0558E31 P0000 T00440017
KBFD 060553Z AUTO 31007KT 10SM BKN018 OVC025 04/02 A3001 RMK AO2 RAE04 SLP170 P0000 60001 T00440017 10067 20044 50001
KBFD 060511Z AUTO 31008KT 10SM OVC016 04/02 A3002 RMK AO2 RAE04 P0000 T00440017
KBFD 060453Z AUTO 31010KT 9SM -RA OVC013 04/02 A3002 RMK AO2 RAB37 SLP173 P0000 T00440017 401390044
KBFD 060445Z AUTO 32009KT 10SM -RA OVC013 04/02 A3002 RMK AO2 RAB37 P0000 T00440017
KBFD 060353Z AUTO 31012KT 10SM BKN016 BKN023 OVC050 05/02 A3001 RMK AO2 RAE02 SLP170 P0001 T00500017
KBFD 060253Z AUTO 31009KT 10SM -RA SCT015 BKN019 OVC037 05/02 A3001 RMK AO2 RAB30 SLP168 P0000 60000 T00500022 53012
KBFD 060240Z AUTO 31011KT 6SM -RA SCT017 BKN025 OVC043 05/02 A3001 RMK AO2 RAB30 P0000 T00500017
KBFD 060153Z AUTO 29011G19KT 10SM SCT017 OVC037 06/02 A3000 RMK AO2 SLP165 T00610017
KBFD 060053Z AUTO 29010KT 10SM SCT019 SCT025 OVC044 07/02 A2997 RMK AO2 SLP154 T00670017
KBFD 060050Z AUTO 29013KT 10SM SCT019 SCT025 OVC046 07/02 A2997 RMK AO2
KBFD 052353Z AUTO 28008KT 10SM BKN015 BKN020 OVC044 07/03 A2995 RMK AO2 RAB03E12 SLP147 P0000 60000 T00670028 10094 20067 51019